createdAt,value
2022-12-03T00:00:29.585Z,9.50
2022-12-03T00:02:56.991Z,9.40
2022-12-03T00:05:24.446Z,9.20
2022-12-03T00:07:51.927Z,9.20
2022-12-03T00:10:19.286Z,9.20
2022-12-03T00:13:05.659Z,9.40
2022-12-03T00:15:33.278Z,9.40
2022-12-03T00:18:00.595Z,9.40
2022-12-03T00:20:28.173Z,9.30
2022-12-03T00:22:55.462Z,9.20
2022-12-03T00:25:22.789Z,9.20
2022-12-03T00:27:50.107Z,9.20
2022-12-03T00:30:18.663Z,9.20
2022-12-03T00:32:45.994Z,9.30
2022-12-03T00:35:14.246Z,9.30
2022-12-03T00:37:41.702Z,9.40
2022-12-03T00:40:10.947Z,9.40
2022-12-03T00:42:38.801Z,9.40
2022-12-03T00:45:08.031Z,9.40
2022-12-03T00:47:35.919Z,9.40
2022-12-03T00:50:05.292Z,9.40
2022-12-03T00:52:33.041Z,9.40
2022-12-03T00:55:00.484Z,9.40
2022-12-03T00:57:28.243Z,9.20
2022-12-03T00:59:55.599Z,9.00
2022-12-03T01:02:23.476Z,9.10
2022-12-03T01:04:51.087Z,9.20
2022-12-03T01:07:18.726Z,9.20
2022-12-03T01:09:46.565Z,9.20
2022-12-03T01:12:13.951Z,9.20
2022-12-03T01:14:41.711Z,9.20
2022-12-03T01:17:09.096Z,9.20
2022-12-03T01:19:36.927Z,9.20
2022-12-03T01:22:06.057Z,9.20
2022-12-03T01:24:35.049Z,9.20
2022-12-03T01:27:02.396Z,9.20
2022-12-03T01:29:30.305Z,9.10
2022-12-03T01:32:15.984Z,8.90
2022-12-03T01:34:47.977Z,8.90
2022-12-03T01:37:15.925Z,9.00
2022-12-03T01:39:44.120Z,9.00
2022-12-03T01:42:20.265Z,9.00
2022-12-03T01:44:48.504Z,9.00
2022-12-03T01:47:19.046Z,9.00
2022-12-03T01:50:09.753Z,9.00
2022-12-03T01:52:39.470Z,9.00
2022-12-03T01:55:14.152Z,9.00
2022-12-03T01:57:45.640Z,9.00
2022-12-03T02:00:22.004Z,9.00
2022-12-03T02:02:54.211Z,8.90
2022-12-03T02:05:26.487Z,8.90
2022-12-03T02:07:54.379Z,8.80
2022-12-03T02:10:28.533Z,8.80
2022-12-03T02:13:08.303Z,8.80
2022-12-03T02:15:38.175Z,8.90
2022-12-03T02:18:08.578Z,8.90
2022-12-03T02:20:46.779Z,8.90
2022-12-03T02:23:39.852Z,8.80
2022-12-03T02:26:07.285Z,8.80
2022-12-03T02:28:35.189Z,8.90
2022-12-03T02:31:05.506Z,9.00
2022-12-03T02:33:33.902Z,9.00
2022-12-03T02:36:03.866Z,9.10
2022-12-03T02:38:35.158Z,9.10
2022-12-03T02:41:11.243Z,9.00
2022-12-03T02:43:39.057Z,9.00
2022-12-03T02:46:08.980Z,9.10
2022-12-03T02:48:39.464Z,9.10
2022-12-03T02:51:10.555Z,9.10
2022-12-03T02:53:45.239Z,9.10
2022-12-03T02:56:16.040Z,8.90
2022-12-03T02:58:46.359Z,8.90
2022-12-03T03:01:15.744Z,8.90
2022-12-03T03:03:45.537Z,8.80
2022-12-03T03:06:13.539Z,8.80
2022-12-03T03:08:42.507Z,9.00
2022-12-03T03:11:10.089Z,9.10
2022-12-03T03:13:38.357Z,9.20
2022-12-03T03:16:07.409Z,9.20
2022-12-03T03:18:35.429Z,9.20
2022-12-03T03:21:05.083Z,9.00
2022-12-03T03:23:33.933Z,9.00
2022-12-03T03:26:06.287Z,9.00
2022-12-03T03:28:37.201Z,9.00
2022-12-03T03:31:07.966Z,9.00
2022-12-03T03:33:36.963Z,9.10
2022-12-03T03:36:05.408Z,9.20
2022-12-03T03:38:33.963Z,9.00
2022-12-03T03:41:03.856Z,9.00
2022-12-03T03:43:35.340Z,9.00
2022-12-03T03:46:06.568Z,9.10
2022-12-03T03:48:35.735Z,9.20
2022-12-03T03:51:09.070Z,9.00
2022-12-03T03:53:44.482Z,9.00
2022-12-03T03:56:14.886Z,9.00
2022-12-03T03:58:42.289Z,8.90
2022-12-03T04:01:11.341Z,8.90
2022-12-03T04:03:46.010Z,9.00
2022-12-03T04:06:13.389Z,9.00
2022-12-03T04:08:41.520Z,9.00
2022-12-03T04:11:28.200Z,9.00
2022-12-03T04:13:55.786Z,9.00
2022-12-03T04:16:23.091Z,9.10
2022-12-03T04:18:51.076Z,9.20
2022-12-03T04:21:39.262Z,9.20
2022-12-03T04:24:08.688Z,9.30
2022-12-03T04:26:54.434Z,9.40
2022-12-03T04:29:22.974Z,9.40
2022-12-03T04:32:08.975Z,9.40
2022-12-03T04:34:54.941Z,9.40
2022-12-03T04:37:22.781Z,9.50
2022-12-03T04:39:50.246Z,9.40
2022-12-03T04:42:17.605Z,9.50
2022-12-03T04:44:45.117Z,9.50
2022-12-03T04:47:18.680Z,9.60
2022-12-03T04:49:48.279Z,9.50
2022-12-03T04:52:17.542Z,9.50
2022-12-03T04:54:44.988Z,9.50
2022-12-03T04:57:12.816Z,9.50
2022-12-03T04:59:40.516Z,9.50
2022-12-03T05:02:09.134Z,9.60
2022-12-03T05:04:37.453Z,9.60
2022-12-03T05:07:04.827Z,9.70
2022-12-03T05:09:33.052Z,9.70
2022-12-03T05:12:01.023Z,9.70
2022-12-03T05:14:29.017Z,9.70
2022-12-03T05:16:56.479Z,9.70
2022-12-03T05:19:45.216Z,9.70
2022-12-03T05:22:12.625Z,9.70
2022-12-03T05:24:40.577Z,9.80
2022-12-03T05:27:07.889Z,9.80
2022-12-03T05:29:35.665Z,9.70
2022-12-03T05:32:03.071Z,9.70
2022-12-03T05:34:30.697Z,9.70
2022-12-03T05:36:59.047Z,9.70
2022-12-03T05:39:26.440Z,9.80
2022-12-03T05:42:12.776Z,10.00
2022-12-03T05:44:40.105Z,10.00
2022-12-03T05:47:08.278Z,10.00
2022-12-03T05:49:35.602Z,10.00
2022-12-03T05:52:02.966Z,10.00
2022-12-03T05:54:30.627Z,10.00
2022-12-03T05:56:58.927Z,10.00
2022-12-03T05:59:27.378Z,10.00
2022-12-03T06:01:54.746Z,10.00
2022-12-03T06:04:22.789Z,10.00
2022-12-03T06:06:50.097Z,10.00
2022-12-03T06:09:17.527Z,10.10
2022-12-03T06:11:44.994Z,10.20
2022-12-03T06:14:12.269Z,10.20
2022-12-03T06:16:39.666Z,10.20
2022-12-03T06:19:07.168Z,10.20
2022-12-03T06:21:35.115Z,10.20
2022-12-03T06:24:02.509Z,10.20
2022-12-03T06:26:32.703Z,10.10
2022-12-03T06:29:00.484Z,10.10
2022-12-03T06:31:28.818Z,10.10
2022-12-03T06:33:56.374Z,10.20
2022-12-03T06:36:24.488Z,10.20
2022-12-03T06:38:51.819Z,10.20
2022-12-03T06:41:19.274Z,10.30
2022-12-03T06:43:46.732Z,10.20
2022-12-03T06:46:14.377Z,10.10
2022-12-03T06:48:41.736Z,10.20
2022-12-03T06:51:09.520Z,10.20
2022-12-03T06:53:37.091Z,10.30
2022-12-03T06:56:04.659Z,10.30
2022-12-03T06:58:32.724Z,10.30
2022-12-03T07:01:01.413Z,10.30
2022-12-03T07:03:29.339Z,10.20
2022-12-03T07:05:58.268Z,10.20
2022-12-03T07:08:26.221Z,10.20
2022-12-03T07:10:53.587Z,10.20
2022-12-03T07:13:21.613Z,10.30
2022-12-03T07:15:51.948Z,10.40
2022-12-03T07:18:20.427Z,10.40
2022-12-03T07:20:47.803Z,10.40
2022-12-03T07:23:15.240Z,10.40
2022-12-03T07:25:42.811Z,10.40
2022-12-03T07:28:10.224Z,10.40
2022-12-03T07:30:43.083Z,10.40
2022-12-03T07:33:11.538Z,10.50
2022-12-03T07:35:38.728Z,10.50
2022-12-03T07:38:06.651Z,10.50
2022-12-03T07:40:34.053Z,10.60
2022-12-03T07:43:01.563Z,10.60
2022-12-03T07:45:29.662Z,10.50
2022-12-03T07:47:57.701Z,10.60
2022-12-03T07:50:29.750Z,10.50
2022-12-03T07:52:57.788Z,10.50
2022-12-03T07:55:26.495Z,10.70
2022-12-03T07:57:53.887Z,10.70
2022-12-03T08:00:23.520Z,10.80
2022-12-03T08:02:51.295Z,10.90
2022-12-03T08:05:18.783Z,11.00
2022-12-03T08:07:46.168Z,11.10
2022-12-03T08:10:13.982Z,11.10
2022-12-03T08:12:41.286Z,11.20
2022-12-03T08:15:19.909Z,11.30
2022-12-03T08:17:55.787Z,11.30
2022-12-03T08:20:29.400Z,11.30
2022-12-03T08:22:57.791Z,11.40
2022-12-03T08:25:29.285Z,11.40
2022-12-03T08:28:03.400Z,11.40
2022-12-03T08:30:31.907Z,11.40
2022-12-03T08:33:00.334Z,11.40
2022-12-03T08:35:31.012Z,11.30
2022-12-03T08:38:02.364Z,11.20
2022-12-03T08:40:40.048Z,11.40
2022-12-03T08:43:25.271Z,11.50
2022-12-03T08:45:57.932Z,11.70
2022-12-03T08:48:33.146Z,11.70
2022-12-03T08:51:22.978Z,11.60
2022-12-03T08:53:58.145Z,11.70
2022-12-03T08:56:30.985Z,11.70
2022-12-03T08:59:02.069Z,11.90
2022-12-03T09:01:30.742Z,11.90
2022-12-03T09:04:18.599Z,11.90
2022-12-03T09:06:47.256Z,12.10
2022-12-03T09:09:14.714Z,12.10
2022-12-03T09:11:43.432Z,12.10
2022-12-03T09:14:16.698Z,12.20
2022-12-03T09:16:46.159Z,12.20
2022-12-03T09:19:13.665Z,12.30
2022-12-03T09:21:40.900Z,12.50
2022-12-03T09:24:08.901Z,12.50
2022-12-03T09:26:36.358Z,12.50
2022-12-03T09:29:07.628Z,12.60
2022-12-03T09:31:40.225Z,12.80
2022-12-03T09:34:09.135Z,13.10
2022-12-03T09:36:37.212Z,13.30
2022-12-03T09:39:04.578Z,13.50
2022-12-03T09:41:32.073Z,13.60
2022-12-03T09:44:04.389Z,13.50
2022-12-03T09:46:36.864Z,13.50
2022-12-03T09:49:10.831Z,13.60
2022-12-03T09:51:42.279Z,13.50
2022-12-03T09:54:18.357Z,13.10
2022-12-03T09:56:45.918Z,13.00
2022-12-03T09:59:14.928Z,13.10
2022-12-03T10:01:42.906Z,13.20
2022-12-03T10:04:10.890Z,13.30
2022-12-03T10:06:45.299Z,13.30
2022-12-03T10:09:14.868Z,13.70
2022-12-03T10:11:42.376Z,14.60
2022-12-03T10:14:14.076Z,15.60
2022-12-03T10:16:42.238Z,16.20
2022-12-03T10:19:18.341Z,16.40
2022-12-03T10:21:45.712Z,15.80
2022-12-03T10:24:29.583Z,15.40
2022-12-03T10:26:59.648Z,15.00
2022-12-03T10:29:34.570Z,14.80
2022-12-03T10:32:06.693Z,14.30
2022-12-03T10:34:42.112Z,14.10
2022-12-03T10:37:14.651Z,13.90
2022-12-03T10:40:03.233Z,13.90
2022-12-03T10:42:34.572Z,13.60
2022-12-03T10:45:26.056Z,13.50
2022-12-03T10:48:15.563Z,13.40
2022-12-03T10:50:51.929Z,13.30
2022-12-03T10:53:21.261Z,13.10
2022-12-03T10:55:51.585Z,13.10
2022-12-03T10:58:23.424Z,13.20
2022-12-03T11:00:53.755Z,13.30
2022-12-03T11:03:26.931Z,13.30
2022-12-03T11:05:57.887Z,13.50
2022-12-03T11:08:27.998Z,13.50
2022-12-03T11:11:23.390Z,13.60
2022-12-03T11:13:59.348Z,13.60
2022-12-03T11:16:41.962Z,13.60
2022-12-03T11:19:38.862Z,13.50
2022-12-03T11:22:06.136Z,13.50
2022-12-03T11:24:35.477Z,13.50
2022-12-03T11:27:02.807Z,13.60
2022-12-03T11:30:02.509Z,13.70
2022-12-03T11:32:38.862Z,13.80
2022-12-03T11:35:26.341Z,13.90
2022-12-03T11:37:53.796Z,14.00
2022-12-03T11:40:21.555Z,14.10
2022-12-03T11:42:49.755Z,14.10
2022-12-03T11:45:19.489Z,14.20
2022-12-03T11:48:02.661Z,14.20
2022-12-03T11:50:40.378Z,14.20
2022-12-03T11:53:08.256Z,14.20
2022-12-03T11:55:48.639Z,14.30
2022-12-03T11:58:18.439Z,14.20
2022-12-03T12:00:57.126Z,14.20
2022-12-03T12:03:33.879Z,13.90
2022-12-03T12:06:06.293Z,13.80
2022-12-03T12:08:35.516Z,13.80
2022-12-03T12:11:03.679Z,13.90
2022-12-03T12:13:31.711Z,13.70
2022-12-03T12:16:07.325Z,13.70
2022-12-03T12:18:41.007Z,13.70
2022-12-03T12:21:41.849Z,13.60
2022-12-03T12:24:33.525Z,13.60
2022-12-03T12:27:12.076Z,13.70
2022-12-03T12:29:42.578Z,13.70
2022-12-03T12:32:10.816Z,13.70
2022-12-03T12:34:42.210Z,13.80
2022-12-03T12:37:13.696Z,13.70
2022-12-03T12:39:43.664Z,13.90
2022-12-03T12:42:38.869Z,13.80
2022-12-03T12:45:14.058Z,13.70
2022-12-03T12:47:49.194Z,13.90
2022-12-03T12:50:19.135Z,14.00
2022-12-03T12:52:54.365Z,14.00
2022-12-03T12:55:23.629Z,14.30
2022-12-03T12:57:52.181Z,14.50
2022-12-03T13:00:24.347Z,14.50
2022-12-03T13:03:05.223Z,14.50
2022-12-03T13:05:42.423Z,14.40
2022-12-03T13:08:24.184Z,14.40
2022-12-03T13:10:56.409Z,14.50
2022-12-03T13:13:43.142Z,14.80
2022-12-03T13:16:36.193Z,15.20
2022-12-03T13:19:12.598Z,15.60
2022-12-03T13:21:47.104Z,15.50
2022-12-03T13:24:32.953Z,15.30
2022-12-03T13:27:06.881Z,15.00
2022-12-03T13:29:35.552Z,14.90
2022-12-03T13:32:12.879Z,14.70
2022-12-03T13:34:41.377Z,14.40
2022-12-03T13:37:35.375Z,14.30
2022-12-03T13:40:40.704Z,14.20
2022-12-03T13:43:15.602Z,14.20
2022-12-03T13:45:50.094Z,14.20
2022-12-03T13:48:29.222Z,14.30
2022-12-03T13:50:58.284Z,14.20
2022-12-03T13:53:39.179Z,14.20
2022-12-03T13:56:26.278Z,14.20
2022-12-03T13:58:55.063Z,14.10
2022-12-03T14:01:25.188Z,14.20
2022-12-03T14:03:53.153Z,14.20
2022-12-03T14:06:20.984Z,14.30
2022-12-03T14:08:49.288Z,14.40
2022-12-03T14:11:36.759Z,15.00
2022-12-03T14:14:04.586Z,15.50
2022-12-03T14:16:32.125Z,15.60
2022-12-03T14:19:00.527Z,15.40
2022-12-03T14:21:28.101Z,15.20
2022-12-03T14:23:55.868Z,15.00
2022-12-03T14:26:23.248Z,15.00
2022-12-03T14:28:50.538Z,14.80
2022-12-03T14:31:18.279Z,14.50
2022-12-03T14:33:45.930Z,14.20
2022-12-03T14:36:13.368Z,14.00
2022-12-03T14:38:41.184Z,13.90
2022-12-03T14:41:28.518Z,13.80
2022-12-03T14:43:56.360Z,13.70
2022-12-03T14:46:24.008Z,13.60
2022-12-03T14:48:52.030Z,13.50
2022-12-03T14:51:19.633Z,13.50
2022-12-03T14:53:46.993Z,13.50
2022-12-03T14:56:15.497Z,13.50
2022-12-03T14:58:42.873Z,13.50
2022-12-03T15:01:14.344Z,13.40
2022-12-03T15:03:41.619Z,13.30
2022-12-03T15:06:09.374Z,13.30
2022-12-03T15:08:37.064Z,13.30
2022-12-03T15:11:04.779Z,13.30
2022-12-03T15:13:33.369Z,13.30
2022-12-03T15:16:06.558Z,13.30
2022-12-03T15:18:35.418Z,13.30
2022-12-03T15:21:03.861Z,13.20
2022-12-03T15:23:33.351Z,13.10
2022-12-03T15:26:02.957Z,13.10
2022-12-03T15:28:30.590Z,13.10
2022-12-03T15:31:05.332Z,13.10
2022-12-03T15:33:33.243Z,13.10
2022-12-03T15:36:01.380Z,13.00
2022-12-03T15:38:29.147Z,13.00
2022-12-03T15:40:56.951Z,13.00
2022-12-03T15:43:24.381Z,13.00
2022-12-03T15:46:00.522Z,13.00
2022-12-03T15:48:29.158Z,13.10
2022-12-03T15:50:57.567Z,13.10
2022-12-03T15:53:25.193Z,13.10
2022-12-03T15:55:52.484Z,13.10
2022-12-03T15:58:20.655Z,13.10
2022-12-03T16:00:52.083Z,13.10
2022-12-03T16:03:20.691Z,13.10
2022-12-03T16:05:48.612Z,13.00
2022-12-03T16:08:16.237Z,13.00
2022-12-03T16:10:43.513Z,13.10
2022-12-03T16:13:10.857Z,13.20
2022-12-03T16:15:40.448Z,13.30
2022-12-03T16:18:08.854Z,13.30
2022-12-03T16:20:36.973Z,13.30
2022-12-03T16:23:04.560Z,13.20
2022-12-03T16:25:31.909Z,13.10
2022-12-03T16:27:59.287Z,13.10
2022-12-03T16:30:33.344Z,13.10
2022-12-03T16:33:01.287Z,13.10
2022-12-03T16:35:28.590Z,13.10
2022-12-03T16:37:55.987Z,13.10
2022-12-03T16:40:23.309Z,13.10
2022-12-03T16:42:51.077Z,13.00
2022-12-03T16:45:35.607Z,13.00
2022-12-03T16:48:03.149Z,13.10
2022-12-03T16:50:30.750Z,13.10
2022-12-03T16:52:58.567Z,13.10
2022-12-03T16:55:25.965Z,13.10
2022-12-03T16:57:53.369Z,13.20
2022-12-03T17:00:24.048Z,13.30
2022-12-03T17:02:53.085Z,13.20
2022-12-03T17:05:20.523Z,13.20
2022-12-03T17:07:47.793Z,13.30
2022-12-03T17:10:15.229Z,13.50
2022-12-03T17:13:08.188Z,13.50
2022-12-03T17:15:33.250Z,13.50
2022-12-03T17:18:00.745Z,13.50
2022-12-03T17:20:28.035Z,13.60
2022-12-03T17:22:55.365Z,13.70
2022-12-03T17:25:22.736Z,13.60
2022-12-03T17:27:50.296Z,13.70
2022-12-03T17:30:17.974Z,13.70
2022-12-03T17:32:45.269Z,13.60
2022-12-03T17:35:12.823Z,13.60
2022-12-03T17:37:40.142Z,13.70
2022-12-03T17:40:09.988Z,13.60
2022-12-03T17:42:37.590Z,13.60
2022-12-03T17:45:06.996Z,13.50
2022-12-03T17:47:35.735Z,13.50
2022-12-03T17:50:03.009Z,13.40
2022-12-03T17:52:31.450Z,13.40
2022-12-03T17:55:23.645Z,13.30
2022-12-03T17:57:45.968Z,13.20
2022-12-03T18:00:13.605Z,13.10
2022-12-03T18:02:42.467Z,13.10
2022-12-03T18:05:10.426Z,12.90
2022-12-03T18:07:37.858Z,12.90
2022-12-03T18:10:08.027Z,12.90
2022-12-03T18:12:37.215Z,13.10
2022-12-03T18:15:07.082Z,13.10
2022-12-03T18:17:34.624Z,13.10
2022-12-03T18:20:02.267Z,13.10
2022-12-03T18:22:30.914Z,13.10
2022-12-03T18:24:58.252Z,13.00
2022-12-03T18:27:25.780Z,12.90
2022-12-03T18:29:53.384Z,12.70
2022-12-03T18:32:28.667Z,12.70
2022-12-03T18:34:57.888Z,12.80
2022-12-03T18:37:28.277Z,12.80
2022-12-03T18:39:56.828Z,12.80
2022-12-03T18:42:25.120Z,12.80
2022-12-03T18:44:55.184Z,12.80
2022-12-03T18:47:25.041Z,12.90
2022-12-03T18:49:53.553Z,12.90
2022-12-03T18:52:23.248Z,12.80
2022-12-03T18:54:51.535Z,12.80
2022-12-03T18:57:18.912Z,12.50
2022-12-03T18:59:46.427Z,12.40
2022-12-03T19:02:38.984Z,12.20
2022-12-03T19:05:05.869Z,12.20
2022-12-03T19:07:33.162Z,12.30
2022-12-03T19:10:00.812Z,12.30
2022-12-03T19:12:28.427Z,12.30
2022-12-03T19:14:55.826Z,12.40
2022-12-03T19:17:23.134Z,12.50
2022-12-03T19:19:51.434Z,12.50
2022-12-03T19:22:19.051Z,12.50
2022-12-03T19:24:47.534Z,12.50
2022-12-03T19:27:15.669Z,12.50
2022-12-03T19:29:43.887Z,12.50
2022-12-03T19:32:11.143Z,12.50
2022-12-03T19:34:38.497Z,12.30
2022-12-03T19:37:06.608Z,12.20
2022-12-03T19:39:34.011Z,12.20
2022-12-03T19:42:02.089Z,12.20
2022-12-03T19:44:29.482Z,12.30
2022-12-03T19:46:57.507Z,12.20
2022-12-03T19:49:26.141Z,12.20
2022-12-03T19:51:54.205Z,12.10
2022-12-03T19:54:21.489Z,12.00
2022-12-03T19:56:49.328Z,12.00
2022-12-03T19:59:16.556Z,12.10
2022-12-03T20:01:44.016Z,12.00
2022-12-03T20:04:13.095Z,12.10
2022-12-03T20:06:41.151Z,12.20
2022-12-03T20:09:17.392Z,12.30
2022-12-03T20:11:46.020Z,12.40
2022-12-03T20:14:16.196Z,12.50
2022-12-03T20:16:45.060Z,12.50
2022-12-03T20:19:14.464Z,12.50
2022-12-03T20:21:42.403Z,12.70
2022-12-03T20:24:14.707Z,12.80
2022-12-03T20:26:42.944Z,12.70
2022-12-03T20:29:15.824Z,12.70
2022-12-03T20:31:43.245Z,12.70
2022-12-03T20:34:11.594Z,12.80
2022-12-03T20:36:39.536Z,12.70
2022-12-03T20:39:08.432Z,12.70
2022-12-03T20:41:37.553Z,12.60
2022-12-03T20:44:07.816Z,12.50
2022-12-03T20:46:36.669Z,12.50
2022-12-03T20:49:06.435Z,12.40
2022-12-03T20:51:34.016Z,12.30
2022-12-03T20:54:02.047Z,12.10
2022-12-03T20:56:33.086Z,12.10
2022-12-03T20:59:06.459Z,12.20
2022-12-03T21:01:36.690Z,12.30
2022-12-03T21:04:06.846Z,12.30
2022-12-03T21:06:37.070Z,12.30
2022-12-03T21:09:06.837Z,12.40
2022-12-03T21:11:36.654Z,12.40
2022-12-03T21:14:04.785Z,12.30
2022-12-03T21:17:06.643Z,12.20
2022-12-03T21:19:24.188Z,12.20
2022-12-03T21:21:51.522Z,12.20
2022-12-03T21:24:18.899Z,12.10
2022-12-03T21:26:46.301Z,12.00
2022-12-03T21:29:13.602Z,12.00
2022-12-03T21:31:41.067Z,12.00
2022-12-03T21:34:08.847Z,12.00
2022-12-03T21:36:36.954Z,12.10
2022-12-03T21:39:05.548Z,12.10
2022-12-03T21:41:33.030Z,12.20
2022-12-03T21:44:01.496Z,12.20
2022-12-03T21:47:12.824Z,12.20
2022-12-03T21:49:17.045Z,12.30
2022-12-03T21:51:46.251Z,12.10
2022-12-03T21:54:13.666Z,11.90
2022-12-03T21:56:40.942Z,11.30
2022-12-03T21:59:08.599Z,9.60
2022-12-03T22:01:36.849Z,8.60
2022-12-03T22:04:04.861Z,8.40
2022-12-03T22:06:33.813Z,8.30
2022-12-03T22:09:01.803Z,8.40
2022-12-03T22:11:29.212Z,8.50
2022-12-03T22:13:57.346Z,8.60
2022-12-03T22:16:24.897Z,8.40
2022-12-03T22:18:54.298Z,8.70
2022-12-03T22:21:54.274Z,9.00
2022-12-03T22:24:24.215Z,9.10
2022-12-03T22:26:53.928Z,9.00
2022-12-03T22:29:21.353Z,9.20
2022-12-03T22:31:57.087Z,9.40
2022-12-03T22:34:24.817Z,9.40
2022-12-03T22:36:52.177Z,9.50
2022-12-03T22:39:19.600Z,9.60
2022-12-03T22:41:46.886Z,9.70
2022-12-03T22:44:14.164Z,9.70
2022-12-03T22:46:43.210Z,9.70
2022-12-03T22:49:13.129Z,9.80
2022-12-03T22:51:40.621Z,9.60
2022-12-03T22:54:10.371Z,9.30
2022-12-03T22:56:39.037Z,9.10
2022-12-03T22:59:08.250Z,8.90
2022-12-03T23:01:39.035Z,8.90
2022-12-03T23:04:07.426Z,8.90
2022-12-03T23:06:37.687Z,9.00
2022-12-03T23:09:07.349Z,9.00
2022-12-03T23:11:35.397Z,9.00
2022-12-03T23:14:04.164Z,9.00
2022-12-03T23:16:34.728Z,9.00
2022-12-03T23:19:04.392Z,8.90
2022-12-03T23:21:35.015Z,8.70
2022-12-03T23:24:06.958Z,8.60
2022-12-03T23:26:37.767Z,8.60
2022-12-03T23:29:08.869Z,8.60
2022-12-03T23:31:37.268Z,8.80
2022-12-03T23:34:06.792Z,8.70
2022-12-03T23:36:34.840Z,8.80
2022-12-03T23:39:03.205Z,8.80
2022-12-03T23:41:31.330Z,9.00
2022-12-03T23:44:01.057Z,9.10
2022-12-03T23:46:28.704Z,9.20
2022-12-03T23:48:58.650Z,9.20
2022-12-03T23:51:36.684Z,9.20
2022-12-03T23:54:16.120Z,9.20
2022-12-03T23:56:46.093Z,9.20
2022-12-03T23:59:13.519Z,9.20
